createdAt,value
2017-08-04T00:00:59.053Z,71.60
2017-08-04T00:03:26.958Z,71.30
2017-08-04T00:05:54.525Z,71.50
2017-08-04T00:08:22.101Z,71.80
2017-08-04T00:10:50.797Z,71.90
2017-08-04T00:13:18.356Z,71.90
2017-08-04T00:15:46.011Z,72.10
2017-08-04T00:18:13.943Z,71.80
2017-08-04T00:20:42.126Z,71.80
2017-08-04T00:23:09.799Z,72.00
2017-08-04T00:25:37.764Z,72.20
2017-08-04T00:28:05.313Z,72.10
2017-08-04T00:30:32.949Z,72.00
2017-08-04T00:33:00.957Z,71.70
2017-08-04T00:35:28.516Z,72.20
2017-08-04T00:37:56.093Z,72.40
2017-08-04T00:40:24.757Z,72.20
2017-08-04T00:42:52.307Z,72.10
2017-08-04T00:45:19.880Z,72.00
2017-08-04T00:47:47.909Z,72.30
2017-08-04T00:50:15.536Z,72.50
2017-08-04T00:52:43.103Z,72.20
2017-08-04T00:55:11.137Z,71.80
2017-08-04T00:57:38.702Z,72.30
2017-08-04T01:00:06.436Z,71.70
2017-08-04T01:02:34.535Z,72.40
2017-08-04T01:05:02.133Z,72.40
2017-08-04T01:07:29.736Z,72.10
2017-08-04T01:09:57.714Z,72.10
2017-08-04T01:12:25.276Z,72.40
2017-08-04T01:14:52.818Z,72.90
2017-08-04T01:17:20.743Z,72.60
2017-08-04T01:19:48.300Z,72.80
2017-08-04T01:22:15.880Z,72.60
2017-08-04T01:24:43.897Z,72.80
2017-08-04T01:27:11.451Z,72.90
2017-08-04T01:29:39.012Z,72.60
2017-08-04T01:32:07.067Z,72.60
2017-08-04T01:34:34.620Z,72.60
2017-08-04T01:37:02.180Z,72.80
2017-08-04T01:39:30.074Z,72.80
2017-08-04T01:41:57.647Z,72.60
2017-08-04T01:44:25.204Z,72.60
2017-08-04T01:46:53.259Z,72.90
2017-08-04T01:49:20.824Z,73.00
2017-08-04T01:51:48.390Z,72.40
2017-08-04T01:54:16.248Z,72.70
2017-08-04T01:56:43.811Z,73.70
2017-08-04T01:59:11.369Z,73.20
2017-08-04T02:01:39.441Z,73.20
2017-08-04T02:04:07.014Z,73.40
2017-08-04T02:06:34.573Z,73.10
2017-08-04T02:09:03.236Z,73.60
2017-08-04T02:11:30.791Z,73.30
2017-08-04T02:13:58.343Z,73.70
2017-08-04T02:16:26.233Z,73.50
2017-08-04T02:18:53.818Z,73.30
2017-08-04T02:21:21.391Z,73.50
2017-08-04T02:23:49.407Z,73.70
2017-08-04T02:26:16.970Z,73.50
2017-08-04T02:28:44.559Z,73.60
2017-08-04T02:31:13.222Z,74.40
2017-08-04T02:33:40.789Z,74.40
2017-08-04T02:36:08.339Z,73.70
2017-08-04T02:38:36.229Z,73.40
2017-08-04T02:41:04.577Z,73.80
2017-08-04T02:43:32.128Z,73.50
2017-08-04T02:46:00.027Z,73.30
2017-08-04T02:48:28.359Z,73.70
2017-08-04T02:50:55.920Z,73.50
2017-08-04T02:53:23.813Z,73.50
2017-08-04T02:55:51.358Z,73.70
2017-08-04T02:58:18.917Z,73.70
2017-08-04T03:00:46.804Z,73.80
2017-08-04T03:03:14.365Z,73.80
2017-08-04T03:05:41.958Z,73.40
2017-08-04T03:08:10.829Z,73.00
2017-08-04T03:10:39.144Z,73.60
2017-08-04T03:13:06.701Z,73.80
2017-08-04T03:15:34.624Z,73.50
2017-08-04T03:18:02.189Z,73.60
2017-08-04T03:20:29.752Z,73.30
2017-08-04T03:22:57.614Z,73.50
2017-08-04T03:25:25.180Z,73.50
2017-08-04T03:27:52.759Z,73.10
2017-08-04T03:30:20.813Z,73.20
2017-08-04T03:32:49.130Z,72.90
2017-08-04T03:35:16.711Z,72.80
2017-08-04T03:37:44.608Z,73.10
2017-08-04T03:40:12.155Z,73.10
2017-08-04T03:42:39.711Z,72.80
2017-08-04T03:45:07.558Z,73.00
2017-08-04T03:47:35.114Z,72.70
2017-08-04T03:50:02.674Z,72.90
2017-08-04T03:52:30.772Z,72.80
2017-08-04T03:54:58.345Z,72.60
2017-08-04T03:57:25.921Z,72.70
2017-08-04T03:59:54.576Z,72.50
2017-08-04T04:02:22.141Z,72.40
2017-08-04T04:04:49.686Z,72.90
2017-08-04T04:07:17.560Z,72.70
2017-08-04T04:09:45.108Z,73.00
2017-08-04T04:12:12.661Z,72.80
2017-08-04T04:14:40.542Z,72.60
2017-08-04T04:17:08.095Z,72.60
2017-08-04T04:19:35.672Z,72.60
2017-08-04T04:22:03.752Z,72.50
2017-08-04T04:24:31.300Z,72.60
2017-08-04T04:26:58.865Z,72.50
2017-08-04T04:29:26.711Z,72.10
2017-08-04T04:31:54.251Z,73.30
2017-08-04T04:34:21.809Z,72.70
2017-08-04T04:36:49.719Z,72.60
2017-08-04T04:39:17.248Z,72.30
2017-08-04T04:41:44.808Z,72.30
2017-08-04T04:44:12.691Z,72.60
2017-08-04T04:46:40.241Z,72.40
2017-08-04T04:49:07.814Z,72.30
2017-08-04T04:51:35.692Z,72.50
2017-08-04T04:54:03.263Z,72.20
2017-08-04T04:56:30.844Z,72.30
2017-08-04T04:58:58.736Z,72.10
2017-08-04T05:01:26.301Z,72.20
2017-08-04T05:03:53.860Z,71.70
2017-08-04T05:06:21.871Z,71.70
2017-08-04T05:08:50.195Z,72.40
2017-08-04T05:11:17.756Z,71.70
2017-08-04T05:13:45.673Z,71.90
2017-08-04T05:16:13.237Z,71.70
2017-08-04T05:18:40.793Z,71.70
2017-08-04T05:21:08.853Z,71.40
2017-08-04T05:23:36.418Z,71.60
2017-08-04T05:26:04.151Z,71.40
2017-08-04T05:28:32.063Z,71.20
2017-08-04T05:31:00.581Z,71.70
2017-08-04T05:33:28.130Z,71.10
2017-08-04T05:35:56.047Z,70.80
2017-08-04T05:38:23.599Z,70.80
2017-08-04T05:40:51.146Z,70.40
2017-08-04T05:43:19.028Z,70.40
2017-08-04T05:45:46.634Z,70.40
2017-08-04T05:48:14.207Z,70.60
2017-08-04T05:50:42.223Z,70.50
2017-08-04T05:53:09.823Z,70.60
2017-08-04T05:55:37.388Z,70.60
2017-08-04T05:58:05.316Z,70.70
2017-08-04T06:00:32.866Z,70.70
2017-08-04T06:03:00.420Z,70.60
2017-08-04T06:05:28.116Z,70.60
2017-08-04T06:07:55.688Z,70.70
2017-08-04T06:10:24.340Z,70.80
2017-08-04T06:12:51.913Z,70.60
2017-08-04T06:15:19.462Z,70.70
2017-08-04T06:17:47.104Z,70.80
2017-08-04T06:20:14.714Z,70.80
2017-08-04T06:22:42.594Z,70.60
2017-08-04T06:25:10.162Z,70.80
2017-08-04T06:27:37.715Z,70.30
2017-08-04T06:30:05.315Z,70.40
2017-08-04T06:32:32.859Z,70.40
2017-08-04T06:35:00.762Z,70.40
2017-08-04T06:37:28.333Z,70.40
2017-08-04T06:39:56.025Z,70.20
2017-08-04T06:42:23.613Z,69.70
2017-08-04T06:44:51.181Z,69.70
2017-08-04T06:47:19.074Z,69.70
2017-08-04T06:49:58.457Z,69.80
2017-08-04T06:52:38.159Z,69.80
2017-08-04T06:55:17.459Z,70.00
2017-08-04T06:57:45.360Z,69.40
2017-08-04T07:00:12.915Z,69.10
2017-08-04T07:02:40.487Z,68.20
2017-08-04T07:05:08.860Z,67.80
2017-08-04T07:07:36.680Z,67.80
2017-08-04T07:10:04.560Z,67.10
2017-08-04T07:12:32.321Z,67.00
2017-08-04T07:14:59.871Z,66.10
2017-08-04T07:17:27.482Z,66.40
2017-08-04T07:19:55.807Z,67.30
2017-08-04T07:22:23.696Z,66.70
2017-08-04T07:24:51.244Z,66.90
2017-08-04T07:27:18.827Z,67.20
2017-08-04T07:29:46.432Z,66.80
2017-08-04T07:32:14.013Z,66.50
2017-08-04T07:34:42.798Z,66.20
2017-08-04T07:37:10.413Z,66.30
2017-08-04T07:39:38.781Z,66.70
2017-08-04T07:42:06.560Z,66.50
2017-08-04T07:44:35.120Z,66.40
2017-08-04T07:47:02.955Z,65.90
2017-08-04T07:49:30.524Z,66.00
2017-08-04T07:51:58.079Z,65.80
2017-08-04T07:54:25.699Z,65.60
2017-08-04T07:56:54.208Z,66.00
2017-08-04T07:59:22.083Z,65.90
2017-08-04T08:01:49.644Z,65.80
2017-08-04T08:04:17.344Z,65.10
2017-08-04T08:06:44.950Z,65.00
2017-08-04T08:09:12.526Z,65.10
2017-08-04T08:11:40.536Z,64.10
2017-08-04T08:14:08.106Z,64.00
2017-08-04T08:16:35.675Z,63.80
2017-08-04T08:19:04.483Z,63.70
2017-08-04T08:21:32.067Z,63.60
2017-08-04T08:24:00.091Z,63.50
2017-08-04T08:26:28.424Z,63.60
2017-08-04T08:28:55.984Z,63.50
2017-08-04T08:31:23.580Z,63.50
2017-08-04T08:33:51.128Z,62.60
2017-08-04T08:36:18.999Z,62.30
2017-08-04T08:38:46.556Z,62.30
2017-08-04T08:41:14.168Z,60.50
2017-08-04T08:43:42.827Z,61.20
2017-08-04T08:46:10.425Z,61.20
2017-08-04T08:48:38.531Z,61.20
2017-08-04T08:51:06.145Z,61.30
2017-08-04T08:53:33.792Z,60.30
2017-08-04T08:56:01.409Z,60.30
2017-08-04T08:58:29.192Z,60.20
2017-08-04T09:00:57.252Z,60.80
2017-08-04T09:03:24.796Z,60.90
2017-08-04T09:05:52.405Z,61.00
2017-08-04T09:08:20.002Z,60.80
2017-08-04T09:10:47.568Z,60.60
2017-08-04T09:13:15.553Z,60.60
2017-08-04T09:15:43.127Z,60.10
2017-08-04T09:18:10.789Z,59.30
2017-08-04T09:20:38.385Z,59.40
2017-08-04T09:23:05.949Z,58.90
2017-08-04T09:25:33.854Z,58.40
2017-08-04T09:28:01.426Z,58.20
2017-08-04T09:30:29.002Z,58.10
2017-08-04T09:32:56.595Z,58.10
2017-08-04T09:35:24.442Z,58.80
2017-08-04T09:37:52.392Z,58.50
2017-08-04T09:40:19.956Z,58.80
2017-08-04T09:42:47.514Z,57.40
2017-08-04T09:45:15.127Z,58.60
2017-08-04T09:47:42.701Z,58.00
2017-08-04T09:50:10.586Z,58.30
2017-08-04T09:52:38.166Z,58.10
2017-08-04T09:55:05.745Z,57.20
2017-08-04T09:57:33.347Z,56.60
2017-08-04T10:00:00.908Z,55.50
2017-08-04T10:02:28.787Z,55.80
2017-08-04T10:04:56.437Z,55.10
2017-08-04T10:07:24.016Z,56.10
2017-08-04T10:09:51.837Z,54.90
2017-08-04T10:12:19.515Z,54.40
2017-08-04T10:14:47.362Z,53.30
2017-08-04T10:17:14.938Z,53.20
2017-08-04T10:19:42.522Z,53.20
2017-08-04T10:22:10.121Z,53.50
2017-08-04T10:24:38.450Z,53.60
2017-08-04T10:27:06.308Z,53.50
2017-08-04T10:29:33.877Z,53.60
2017-08-04T10:32:03.071Z,52.60
2017-08-04T10:34:30.713Z,52.00
2017-08-04T10:36:58.283Z,53.20
2017-08-04T10:39:26.186Z,53.20
2017-08-04T10:41:53.810Z,53.00
2017-08-04T10:44:21.452Z,53.00
2017-08-04T10:46:49.150Z,53.00
2017-08-04T10:49:16.721Z,53.00
2017-08-04T10:51:44.838Z,52.90
2017-08-04T10:54:12.427Z,52.90
2017-08-04T10:56:39.986Z,52.80
2017-08-04T10:59:07.600Z,52.90
2017-08-04T11:01:35.193Z,53.50
2017-08-04T11:04:03.197Z,54.00
2017-08-04T11:06:30.784Z,53.00
2017-08-04T11:08:58.340Z,53.20
2017-08-04T11:11:25.990Z,53.20
2017-08-04T11:13:53.568Z,53.20
2017-08-04T11:16:21.526Z,53.20
2017-08-04T11:18:49.070Z,53.30
2017-08-04T11:21:16.776Z,53.30
2017-08-04T11:23:44.395Z,53.30
2017-08-04T11:26:11.954Z,53.50
2017-08-04T11:28:39.826Z,52.90
2017-08-04T11:31:07.390Z,52.10
2017-08-04T11:33:34.979Z,52.30
2017-08-04T11:36:02.606Z,52.90
2017-08-04T11:38:30.169Z,52.10
2017-08-04T11:40:58.153Z,53.40
2017-08-04T11:43:25.721Z,51.30
2017-08-04T11:45:53.292Z,51.60
2017-08-04T11:48:21.640Z,50.40
2017-08-04T11:50:49.186Z,50.40
2017-08-04T11:53:17.281Z,50.50
2017-08-04T11:55:44.849Z,50.80
2017-08-04T11:58:12.394Z,50.70
2017-08-04T12:00:40.219Z,50.80
2017-08-04T12:03:07.779Z,50.80
2017-08-04T12:05:35.794Z,50.10
2017-08-04T12:08:03.358Z,50.00
2017-08-04T12:10:30.939Z,50.60
2017-08-04T12:12:58.537Z,50.90
2017-08-04T12:15:26.091Z,50.70
2017-08-04T12:17:53.954Z,50.70
2017-08-04T12:20:21.526Z,50.80
2017-08-04T12:22:49.078Z,50.30
2017-08-04T12:25:16.654Z,49.60
2017-08-04T12:27:44.224Z,49.90
2017-08-04T12:30:12.200Z,49.70
2017-08-04T12:32:39.763Z,50.20
2017-08-04T12:35:07.334Z,49.60
2017-08-04T12:37:35.777Z,48.60
2017-08-04T12:40:03.338Z,48.60
2017-08-04T12:42:31.219Z,47.80
2017-08-04T12:44:58.785Z,48.70
2017-08-04T12:47:26.325Z,48.10
2017-08-04T12:49:54.114Z,47.40
2017-08-04T12:52:21.688Z,47.60
2017-08-04T12:54:49.659Z,47.40
2017-08-04T12:57:18.003Z,47.40
2017-08-04T12:59:45.558Z,47.30
2017-08-04T13:02:13.156Z,47.30
2017-08-04T13:04:40.739Z,46.80
2017-08-04T13:07:08.766Z,47.30
2017-08-04T13:09:36.353Z,46.60
2017-08-04T13:12:03.928Z,47.30
2017-08-04T13:14:31.740Z,47.20
2017-08-04T13:16:59.299Z,48.20
2017-08-04T13:19:27.289Z,47.50
2017-08-04T13:21:54.862Z,47.60
2017-08-04T13:24:22.440Z,47.70
2017-08-04T13:26:50.125Z,46.80
2017-08-04T13:29:17.684Z,46.20
2017-08-04T13:31:45.864Z,44.00
2017-08-04T13:34:13.447Z,44.10
2017-08-04T13:36:41.797Z,41.80
2017-08-04T13:39:09.484Z,41.70
2017-08-04T13:41:37.048Z,42.70
2017-08-04T13:44:04.933Z,41.50
2017-08-04T13:46:32.649Z,42.50
2017-08-04T13:49:00.212Z,42.90
2017-08-04T13:51:27.821Z,43.90
2017-08-04T13:53:55.376Z,44.40
2017-08-04T13:56:23.434Z,44.90
2017-08-04T13:58:51.009Z,44.80
2017-08-04T14:01:18.574Z,43.90
2017-08-04T14:03:46.940Z,45.40
2017-08-04T14:06:14.493Z,45.20
2017-08-04T14:08:42.625Z,44.70
2017-08-04T14:11:10.219Z,45.00
2017-08-04T14:13:37.786Z,44.30
2017-08-04T14:16:05.388Z,43.00
2017-08-04T14:18:32.962Z,43.30
2017-08-04T14:21:01.457Z,43.50
2017-08-04T14:23:29.319Z,44.10
2017-08-04T14:25:57.085Z,44.10
2017-08-04T14:28:24.679Z,45.40
2017-08-04T14:30:52.260Z,44.50
2017-08-04T14:33:20.228Z,45.10
2017-08-04T14:35:48.573Z,44.30
2017-08-04T14:38:16.135Z,44.30
2017-08-04T14:40:43.747Z,43.80
2017-08-04T14:43:11.329Z,42.90
2017-08-04T14:45:39.338Z,43.60
2017-08-04T14:48:06.895Z,43.50
2017-08-04T14:50:34.489Z,43.60
2017-08-04T14:53:02.859Z,43.40
2017-08-04T14:55:30.410Z,43.40
2017-08-04T14:57:58.772Z,43.00
2017-08-04T15:00:26.340Z,43.40
2017-08-04T15:02:54.234Z,43.40
2017-08-04T15:05:21.836Z,44.00
2017-08-04T15:07:49.408Z,44.60
2017-08-04T15:10:17.009Z,44.60
2017-08-04T15:12:45.348Z,44.80
2017-08-04T15:15:13.243Z,44.60
2017-08-04T15:17:40.932Z,44.80
2017-08-04T15:20:08.663Z,44.60
2017-08-04T15:22:36.279Z,44.40
2017-08-04T15:25:03.819Z,41.20
2017-08-04T15:27:31.702Z,42.00
2017-08-04T15:29:59.286Z,39.30
2017-08-04T15:32:26.861Z,36.40
2017-08-04T15:34:54.481Z,33.80
2017-08-04T15:37:22.059Z,34.80
2017-08-04T15:39:50.159Z,30.90
2017-08-04T15:42:17.763Z,31.70
2017-08-04T15:44:45.340Z,30.20
2017-08-04T15:47:12.936Z,28.70
2017-08-04T15:49:40.506Z,28.20
2017-08-04T15:52:08.430Z,27.20
2017-08-04T15:54:36.012Z,25.80
2017-08-04T15:57:03.572Z,24.40
2017-08-04T15:59:31.259Z,23.80
2017-08-04T16:01:59.615Z,24.80
2017-08-04T16:04:27.767Z,25.30
2017-08-04T16:06:55.338Z,26.40
2017-08-04T16:09:22.902Z,27.70
2017-08-04T16:11:50.510Z,29.50
2017-08-04T16:14:18.074Z,30.80
2017-08-04T16:16:46.121Z,31.60
2017-08-04T16:19:14.468Z,29.30
2017-08-04T16:21:42.085Z,29.20
2017-08-04T16:24:09.923Z,27.90
2017-08-04T16:26:38.239Z,28.00
2017-08-04T16:29:06.272Z,27.40
2017-08-04T16:31:34.621Z,29.40
2017-08-04T16:34:02.179Z,29.40
2017-08-04T16:36:29.793Z,30.50
2017-08-04T16:38:57.355Z,31.60
2017-08-04T16:41:25.559Z,33.60
2017-08-04T16:43:53.123Z,34.30
2017-08-04T16:46:20.688Z,35.90
2017-08-04T16:48:48.297Z,36.80
2017-08-04T16:51:15.881Z,37.70
2017-08-04T16:53:43.894Z,38.30
2017-08-04T16:56:11.466Z,39.70
2017-08-04T16:58:39.037Z,39.40
2017-08-04T17:01:07.414Z,40.20
2017-08-04T17:03:34.978Z,39.00
2017-08-04T17:06:03.617Z,40.90
2017-08-04T17:08:31.297Z,40.90
2017-08-04T17:10:58.883Z,41.30
2017-08-04T17:13:26.680Z,41.70
2017-08-04T17:15:54.230Z,42.10
2017-08-04T17:18:22.197Z,43.10
2017-08-04T17:20:49.781Z,43.60
2017-08-04T17:23:17.362Z,43.10
2017-08-04T17:25:44.976Z,44.00
2017-08-04T17:28:12.535Z,44.60
2017-08-04T17:30:40.131Z,44.60
2017-08-04T17:33:07.713Z,45.20
2017-08-04T17:35:35.628Z,45.30
2017-08-04T17:38:03.201Z,45.80
2017-08-04T17:40:30.764Z,46.50
2017-08-04T17:42:58.362Z,45.90
2017-08-04T17:45:25.914Z,46.30
2017-08-04T17:47:53.897Z,47.20
2017-08-04T17:50:21.470Z,47.10
2017-08-04T17:52:49.191Z,47.50
2017-08-04T17:55:16.794Z,47.60
2017-08-04T17:57:44.366Z,48.40
2017-08-04T18:00:13.040Z,48.80
2017-08-04T18:02:52.463Z,48.60
2017-08-04T18:05:20.384Z,48.80
2017-08-04T18:07:47.958Z,48.50
2017-08-04T18:10:15.530Z,49.50
2017-08-04T18:12:43.131Z,49.10
2017-08-04T18:15:10.708Z,49.50
2017-08-04T18:17:38.626Z,49.20
2017-08-04T18:20:06.215Z,50.20
2017-08-04T18:22:34.568Z,49.80
2017-08-04T18:25:02.200Z,49.80
2017-08-04T18:27:29.751Z,50.80
2017-08-04T18:29:57.866Z,50.60
2017-08-04T18:32:25.430Z,50.60
2017-08-04T18:34:52.996Z,50.10
2017-08-04T18:37:20.627Z,50.50
2017-08-04T18:39:48.199Z,50.50
2017-08-04T18:42:16.189Z,50.40
2017-08-04T18:44:43.773Z,50.30
2017-08-04T18:47:11.364Z,50.20
2017-08-04T18:49:39.145Z,50.10
2017-08-04T18:52:06.832Z,50.10
2017-08-04T18:54:34.904Z,50.20
2017-08-04T18:57:02.480Z,50.50
2017-08-04T18:59:30.112Z,50.80
2017-08-04T19:01:58.315Z,51.30
2017-08-04T19:04:26.652Z,51.60
2017-08-04T19:06:54.204Z,51.60
2017-08-04T19:09:22.103Z,51.70
2017-08-04T19:11:49.804Z,52.20
2017-08-04T19:14:17.358Z,52.10
2017-08-04T19:16:44.957Z,52.10
2017-08-04T19:19:12.540Z,52.90
2017-08-04T19:21:40.796Z,52.70
2017-08-04T19:24:08.390Z,53.10
2017-08-04T19:26:35.983Z,53.80
2017-08-04T19:29:03.651Z,53.80
2017-08-04T19:31:31.231Z,53.60
2017-08-04T19:33:59.340Z,54.00
2017-08-04T19:36:27.722Z,54.60
2017-08-04T19:38:55.287Z,54.40
2017-08-04T19:41:23.664Z,55.20
2017-08-04T19:43:51.237Z,54.30
2017-08-04T19:46:19.915Z,54.70
2017-08-04T19:48:48.259Z,55.30
2017-08-04T19:51:15.877Z,55.10
2017-08-04T19:53:43.463Z,55.70
2017-08-04T19:56:11.039Z,54.70
2017-08-04T19:58:38.986Z,55.00
2017-08-04T20:01:06.598Z,55.40
2017-08-04T20:03:34.358Z,55.40
2017-08-04T20:06:02.420Z,55.70
2017-08-04T20:08:29.998Z,56.10
2017-08-04T20:10:57.561Z,55.90
2017-08-04T20:13:26.443Z,56.40
2017-08-04T20:15:54.781Z,57.80
2017-08-04T20:18:22.368Z,56.90
2017-08-04T20:20:50.482Z,56.70
2017-08-04T20:23:18.063Z,57.20
2017-08-04T20:25:45.633Z,57.40
2017-08-04T20:28:13.855Z,57.10
2017-08-04T20:30:42.185Z,58.10
2017-08-04T20:33:09.774Z,57.90
2017-08-04T20:35:37.385Z,58.00
2017-08-04T20:38:04.968Z,57.90
2017-08-04T20:40:32.538Z,58.80
2017-08-04T20:43:00.585Z,59.50
2017-08-04T20:45:28.194Z,58.90
2017-08-04T20:47:55.752Z,58.90
2017-08-04T20:50:23.825Z,58.90
2017-08-04T20:52:51.403Z,58.50
2017-08-04T20:55:19.105Z,58.80
2017-08-04T20:57:46.727Z,59.00
2017-08-04T21:00:14.297Z,59.20
2017-08-04T21:02:41.928Z,59.50
2017-08-04T21:05:10.320Z,59.40
2017-08-04T21:07:37.883Z,58.60
2017-08-04T21:10:06.217Z,59.00
2017-08-04T21:12:33.912Z,58.90
2017-08-04T21:15:01.468Z,59.70
2017-08-04T21:17:29.033Z,59.20
2017-08-04T21:19:56.741Z,58.70
2017-08-04T21:22:24.321Z,59.60
2017-08-04T21:24:51.885Z,60.20
2017-08-04T21:27:19.488Z,60.40
2017-08-04T21:29:47.049Z,60.20
2017-08-04T21:32:15.384Z,59.40
2017-08-04T21:34:42.998Z,59.30
2017-08-04T21:37:10.543Z,59.30
2017-08-04T21:39:38.097Z,59.70
2017-08-04T21:42:06.470Z,58.90
2017-08-04T21:44:34.146Z,58.80
2017-08-04T21:47:01.734Z,58.50
2017-08-04T21:49:29.352Z,58.70
2017-08-04T21:51:56.944Z,59.10
2017-08-04T21:54:24.781Z,59.50
2017-08-04T21:56:52.445Z,59.00
2017-08-04T21:59:20.010Z,59.30
2017-08-04T22:01:48.345Z,59.10
2017-08-04T22:04:15.963Z,59.10
2017-08-04T22:06:43.523Z,59.80
2017-08-04T22:09:11.075Z,59.70
2017-08-04T22:11:38.916Z,60.00
2017-08-04T22:14:06.882Z,59.90
2017-08-04T22:16:34.461Z,60.00
2017-08-04T22:19:02.844Z,60.00
2017-08-04T22:21:30.394Z,59.80
2017-08-04T22:23:58.723Z,59.80
2017-08-04T22:26:26.350Z,59.50
2017-08-04T22:28:54.672Z,59.60
2017-08-04T22:31:22.228Z,59.50
2017-08-04T22:33:49.836Z,59.40
2017-08-04T22:36:17.415Z,59.30
2017-08-04T22:38:44.976Z,59.00
2017-08-04T22:41:12.589Z,59.00
2017-08-04T22:43:40.226Z,58.70
2017-08-04T22:46:07.778Z,58.90
2017-08-04T22:48:35.367Z,58.70
2017-08-04T22:51:02.957Z,59.20
2017-08-04T22:53:31.311Z,59.50
2017-08-04T22:55:59.000Z,59.50
2017-08-04T22:58:26.575Z,60.20
2017-08-04T23:00:54.199Z,59.90
2017-08-04T23:03:21.855Z,60.60
2017-08-04T23:05:49.448Z,60.60
2017-08-04T23:08:17.056Z,60.20
2017-08-04T23:10:44.670Z,60.80
2017-08-04T23:13:12.358Z,60.80
2017-08-04T23:15:40.676Z,61.00
2017-08-04T23:18:08.277Z,61.00
2017-08-04T23:20:35.834Z,61.00
2017-08-04T23:23:03.417Z,61.00
2017-08-04T23:25:31.774Z,61.00
2017-08-04T23:27:59.336Z,61.00
2017-08-04T23:30:26.920Z,60.90
2017-08-04T23:32:54.585Z,60.70
2017-08-04T23:35:22.180Z,61.00
2017-08-04T23:37:49.939Z,60.30
2017-08-04T23:40:17.536Z,60.10
2017-08-04T23:42:45.117Z,60.00
2017-08-04T23:45:13.436Z,59.90
2017-08-04T23:47:41.028Z,59.80
2017-08-04T23:50:08.590Z,60.00
2017-08-04T23:52:36.155Z,59.90
2017-08-04T23:55:03.774Z,60.10
2017-08-04T23:57:31.528Z,60.10
2017-08-04T23:59:59.101Z,59.90
